Time;durP1;ratioP1;P1;durP2;ratioP2;P2;SDS_P1;SDS_P2;PMS_P1;PMS_P2;Temp;Humidity;BMP_temperature;BMP_pressure;BME280_temperature;BME280_humidity;BME280_pressure;Samples;Min_cycle;Max_cycle;Signal;HPM_P1;HPM_P2
2022/12/09 00:03:46;;;;;;;31.00;15.80;;;;;;;5.69;59.14;99237.56;7684338;32;37338;-83
2022/12/09 00:08:03;;;;;;;30.35;16.52;;;;;;;5.73;58.82;99230.59;7708947;32;39059;-82
2022/12/09 00:12:19;;;;;;;29.73;16.33;;;;;;;5.55;59.50;99245.25;7711602;32;40847;-83
2022/12/09 00:16:35;;;;;;;30.17;16.12;;;;;;;5.93;58.47;99246.22;7711180;32;37926;-84
2022/12/09 00:20:52;;;;;;;28.12;16.08;;;;;;;5.86;58.83;99232.09;7710224;32;37382;-83
2022/12/09 00:25:08;;;;;;;29.25;16.10;;;;;;;5.80;59.31;99239.34;7712540;32;39071;-83
2022/12/09 00:29:25;;;;;;;29.20;16.60;;;;;;;5.67;59.51;99223.50;7712421;32;39660;-84
2022/12/09 00:33:41;;;;;;;29.20;16.55;;;;;;;5.77;59.35;99245.25;7685507;32;38706;-83
2022/12/09 00:37:58;;;;;;;28.45;16.40;;;;;;;5.79;59.38;99237.69;7684410;32;37438;-84
2022/12/09 00:42:14;;;;;;;27.90;16.02;;;;;;;5.61;59.96;99247.78;7685690;32;40344;-83
2022/12/09 00:46:30;;;;;;;29.30;15.45;;;;;;;5.86;58.87;99242.91;7704239;32;39851;-83
2022/12/09 00:50:47;;;;;;;34.00;16.37;;;;;;;5.49;60.26;99265.22;7712111;32;38752;-82
2022/12/09 00:55:03;;;;;;;30.40;17.77;;;;;;;5.86;59.20;99269.97;7693116;32;37438;-82
2022/12/09 00:59:20;;;;;;;29.95;16.30;;;;;;;5.96;58.67;99262.78;7708806;32;39279;-83
2022/12/09 01:03:37;;;;;;;30.35;16.27;;;;;;;5.88;59.17;99249.72;7711836;32;39734;-83
2022/12/09 01:07:54;;;;;;;28.38;16.27;;;;;;;5.79;59.54;99249.31;7711530;32;37871;-83
2022/12/09 01:12:10;;;;;;;28.00;16.48;;;;;;;5.86;59.00;99246.41;7712045;32;37248;-84
2022/12/09 01:16:29;;;;;;;31.85;17.37;;;;;;;5.80;59.65;99250.16;7711767;32;39518;-83
2022/12/09 01:20:54;;;;;;;29.00;16.42;;;;;;;5.58;60.20;99232.03;7711891;32;39967;-84
2022/12/09 01:25:10;;;;;;;29.95;16.98;;;;;;;5.80;59.56;99231.22;7711611;32;37582;-84
2022/12/09 01:29:27;;;;;;;29.35;16.85;;;;;;;5.70;59.73;99234.62;7708340;32;37205;-83
2022/12/09 01:33:44;;;;;;;27.23;15.07;;;;;;;5.64;60.03;99233.75;7685153;32;39446;-84
2022/12/09 01:38:00;;;;;;;30.50;16.27;;;;;;;5.92;59.34;99242.72;7684972;32;40006;-84
2022/12/09 01:42:21;;;;;;;29.75;16.85;;;;;;;5.98;59.09;99233.59;7684955;32;39105;-83
2022/12/09 01:46:38;;;;;;;30.65;17.17;;;;;;;5.58;60.34;99220.41;7685199;32;36574;-83
2022/12/09 01:50:59;;;;;;;26.92;15.80;;;;;;;5.64;60.14;99225.63;7685017;32;38981;-82
2022/12/09 01:55:16;;;;;;;31.62;18.00;;;;;;;5.64;60.07;99228.34;7683916;32;39940;-82
2022/12/09 01:59:32;;;;;;;35.53;18.02;;;;;;;5.81;59.61;99227.44;7686629;32;38733;-83
2022/12/09 02:03:49;;;;;;;29.63;16.48;;;;;;;5.59;60.15;99228.28;7711059;32;37164;-83
2022/12/09 02:08:13;;;;;;;31.30;16.37;;;;;;;5.67;60.05;99218.91;7708873;32;39492;-83
2022/12/09 02:12:36;;;;;;;33.30;17.40;;;;;;;5.63;60.30;99224.00;7684894;32;40193;-83
2022/12/09 02:17:04;;;;;;;32.65;17.05;;;;;;;5.51;60.70;99226.03;7682624;32;37980;-83
2022/12/09 02:21:35;;;;;;;29.65;16.98;;;;;;;5.72;59.90;99223.56;7685127;32;36914;-83
2022/12/09 02:25:59;;;;;;;31.05;17.23;;;;;;;5.66;60.31;99222.69;7683074;32;40166;-83
2022/12/09 02:30:21;;;;;;;30.02;17.48;;;;;;;5.70;59.96;99231.09;7683322;32;39952;-83
2022/12/09 02:34:47;;;;;;;31.37;17.70;;;;;;;5.78;59.90;99225.25;7684038;32;37864;-83
2022/12/09 02:39:05;;;;;;;28.58;16.02;;;;;;;5.62;60.35;99216.13;7683051;32;37882;-83
2022/12/09 02:43:24;;;;;;;31.45;17.02;;;;;;;5.32;61.25;99222.81;7682966;32;39640;-83
2022/12/09 02:47:46;;;;;;;30.45;17.02;;;;;;;5.41;61.23;99231.31;7683191;32;39622;-81
2022/12/09 02:52:04;;;;;;;31.20;16.33;;;;;;;5.60;60.39;99208.28;7682788;32;37732;-81
2022/12/09 02:56:21;;;;;;;32.25;16.90;;;;;;;5.76;59.81;99200.31;7682782;32;35813;-83
2022/12/09 03:00:39;;;;;;;29.95;17.12;;;;;;;5.64;60.19;99187.78;7670407;32;39303;-82
2022/12/09 03:05:11;;;;;;;30.50;16.37;;;;;;;5.70;59.81;99196.75;7682590;32;39923;-83
2022/12/09 03:09:32;;;;;;;31.00;17.12;;;;;;;5.49;60.55;99195.72;7683614;32;38895;-85
2022/12/09 03:14:11;;;;;;;29.77;16.92;;;;;;;5.74;59.81;99197.88;7682485;32;37725;-84
2022/12/09 03:18:29;;;;;;;30.37;18.23;;;;;;;5.44;60.52;99204.56;7683097;32;39269;-84
2022/12/09 03:22:46;;;;;;;34.08;18.58;;;;;;;5.34;61.26;99198.25;7696693;32;39979;-83
2022/12/09 03:27:06;;;;;;;29.67;17.87;;;;;;;5.53;60.70;99202.25;7710569;32;38737;-83
2022/12/09 03:31:26;;;;;;;31.75;17.70;;;;;;;5.31;61.32;99204.12;7713359;32;37109;-83
2022/12/09 03:35:50;;;;;;;31.65;17.95;;;;;;;5.62;60.54;99195.34;7712132;32;39778;-84
2022/12/09 03:40:09;;;;;;;30.55;17.80;;;;;;;5.68;60.21;99192.69;7711938;32;40492;-84
2022/12/09 03:44:43;;;;;;;33.13;18.90;;;;;;;5.58;60.49;99205.00;7690553;32;37914;-84
2022/12/09 03:49:00;;;;;;;33.42;18.45;;;;;;;5.62;60.50;99200.75;7686475;32;37947;-84
2022/12/09 03:53:21;;;;;;;31.70;18.15;;;;;;;5.41;61.07;99198.88;7685303;32;40503;-84
2022/12/09 03:57:41;;;;;;;32.90;18.30;;;;;;;5.30;61.51;99202.53;7685293;32;40180;-83
2022/12/09 04:01:57;;;;;;;33.25;18.08;;;;;;;5.76;60.16;99194.91;7684966;32;37958;-83
2022/12/09 04:06:14;;;;;;;32.40;18.33;;;;;;;5.78;60.09;99193.59;7686475;32;34854;-83
2022/12/09 04:10:31;;;;;;;36.90;18.73;;;;;;;5.28;61.34;99191.97;7688131;32;39866;-84
2022/12/09 04:14:47;;;;;;;33.00;18.17;;;;;;;5.61;60.54;99182.88;7712402;32;40831;-84
2022/12/09 04:19:03;;;;;;;34.20;18.67;;;;;;;5.53;60.98;99190.63;7712393;32;37886;-84
2022/12/09 04:23:20;;;;;;;33.05;19.58;;;;;;;5.40;61.59;99186.44;7712672;32;37304;-84
2022/12/09 04:27:37;;;;;;;37.10;18.50;;;;;;;5.42;61.47;99195.09;7712639;32;39027;-84
2022/12/09 04:31:53;;;;;;;29.30;17.83;;;;;;;5.48;61.62;99209.47;7712461;32;39861;-84
2022/12/09 04:36:12;;;;;;;32.70;18.70;;;;;;;5.40;61.45;99213.47;7706349;32;38745;-84
2022/12/09 04:40:29;;;;;;;36.20;19.12;;;;;;;5.46;61.54;99202.44;7685510;32;38031;-83
2022/12/09 04:44:45;;;;;;;35.70;18.40;;;;;;;5.36;61.74;99190.69;7685686;32;39335;-83
2022/12/09 04:49:02;;;;;;;31.95;17.98;;;;;;;5.39;62.06;99174.78;7685630;32;39984;-82
2022/12/09 04:53:18;;;;;;;37.13;20.37;;;;;;;5.52;61.25;99170.06;7685504;32;37684;-83
2022/12/09 04:57:35;;;;;;;33.20;18.77;;;;;;;5.56;61.10;99173.91;7685469;32;37514;-84
2022/12/09 05:01:51;;;;;;;32.92;19.75;;;;;;;5.70;60.66;99179.72;7685552;32;39370;-84
2022/12/09 05:06:11;;;;;;;41.58;20.40;;;;;;;5.68;60.57;99181.88;7685245;32;39925;-83
2022/12/09 05:10:28;;;;;;;37.72;19.92;;;;;;;5.59;60.92;99182.31;7705598;32;38711;-84
2022/12/09 05:14:44;;;;;;;39.15;20.25;;;;;;;5.30;62.10;99180.91;7711638;32;36956;-83
2022/12/09 05:19:01;;;;;;;36.17;19.67;;;;;;;5.78;60.66;99176.56;7711736;32;39452;-83
2022/12/09 05:23:18;;;;;;;33.67;20.40;;;;;;;5.75;60.62;99158.12;7711838;32;40814;-83
2022/12/09 05:27:34;;;;;;;39.17;21.42;;;;;;;5.75;60.76;99150.03;7711772;32;37936;-83
2022/12/09 05:31:51;;;;;;;38.17;21.00;;;;;;;5.54;61.39;99139.00;7711890;32;37008;-83
2022/12/09 05:36:11;;;;;;;38.72;21.02;;;;;;;5.25;62.26;99147.31;7700144;32;39476;-83
2022/12/09 05:40:28;;;;;;;40.42;21.17;;;;;;;5.18;62.39;99165.63;7684381;32;40862;-83
2022/12/09 05:44:44;;;;;;;42.10;22.40;;;;;;;5.25;62.44;99160.84;7683822;32;39376;-83
2022/12/09 05:49:01;;;;;;;40.00;21.87;;;;;;;5.05;63.34;99158.72;7683954;32;37819;-83
2022/12/09 05:53:18;;;;;;;42.60;22.90;;;;;;;5.18;62.83;99152.09;7685044;32;39421;-84
2022/12/09 05:57:35;;;;;;;41.60;21.17;;;;;;;5.50;62.11;99143.25;7684807;32;39667;-83
2022/12/09 06:01:53;;;;;;;45.28;22.80;;;;;;;5.56;61.90;99144.97;7684737;32;37827;-83
2022/12/09 06:06:12;;;;;;;37.78;20.62;;;;;;;5.35;62.38;99140.41;7684862;32;37966;-84
2022/12/09 06:10:28;;;;;;;45.05;21.80;;;;;;;5.47;62.46;99138.38;7686636;32;38982;-79
2022/12/09 06:14:45;;;;;;;34.90;17.15;;;;;;;5.54;65.65;99136.28;7710790;32;40837;-70
2022/12/09 06:19:01;;;;;;;48.70;25.85;;;;;;;6.31;69.35;99138.88;7710419;32;38726;-83
2022/12/09 06:23:17;;;;;;;44.35;22.33;;;;;;;5.86;62.64;99140.91;7710873;32;38235;-83
2022/12/09 06:27:34;;;;;;;41.50;22.37;;;;;;;6.16;60.88;99129.59;7710053;32;39414;-82
2022/12/09 06:31:51;;;;;;;45.72;23.15;;;;;;;6.01;60.91;99134.88;7711025;32;40594;-86
2022/12/09 06:36:08;;;;;;;48.95;23.83;;;;;;;5.68;61.91;99134.00;7709354;32;37888;-88
2022/12/09 06:40:24;;;;;;;50.15;23.02;;;;;;;5.78;61.94;99127.88;7684410;32;38077;-86
2022/12/09 06:44:40;;;;;;;45.58;22.83;;;;;;;5.72;62.56;99126.19;7684230;32;39062;-82
2022/12/09 06:48:56;;;;;;;49.75;24.77;;;;;;;5.71;62.60;99129.94;7688359;32;39595;-82
2022/12/09 06:53:13;;;;;;;53.60;24.48;;;;;;;5.62;62.75;99132.31;7710595;32;37937;-82
2022/12/09 06:57:29;;;;;;;55.38;24.35;;;;;;;5.31;64.07;99133.88;7710365;32;37214;-82
2022/12/09 07:01:46;;;;;;;57.30;24.73;;;;;;;5.76;62.66;99135.41;7709907;32;39348;-83
2022/12/09 07:06:02;;;;;;;54.67;25.25;;;;;;;5.31;64.19;99144.69;7684433;32;39622;-83
2022/12/09 07:10:19;;;;;;;57.08;27.35;;;;;;;5.13;65.47;99126.91;7683564;32;37950;-82
2022/12/09 07:14:36;;;;;;;49.15;24.65;;;;;;;5.55;64.69;99124.37;7683395;32;37319;-83
2022/12/09 07:18:53;;;;;;;52.20;24.90;;;;;;;5.57;64.05;99124.97;7690615;32;39811;-82
2022/12/09 07:23:09;;;;;;;55.63;26.30;;;;;;;5.35;64.74;99119.59;7709838;32;40841;-82
2022/12/09 07:27:26;;;;;;;54.40;24.42;;;;;;;5.55;64.48;99121.69;7709476;32;38711;-83
2022/12/09 07:31:42;;;;;;;55.55;24.55;;;;;;;5.53;64.56;99121.12;7709681;32;37345;-83
2022/12/09 07:35:58;;;;;;;48.55;24.70;;;;;;;5.08;66.27;99122.25;7703452;32;39018;-82
2022/12/09 07:40:15;;;;;;;50.42;23.85;;;;;;;5.57;64.35;99111.44;7690517;32;40872;-83
2022/12/09 07:44:33;;;;;;;50.38;24.65;;;;;;;5.46;65.04;99109.69;7682691;32;37063;-81
2022/12/09 07:48:50;;;;;;;48.53;22.87;;;;;;;5.48;65.18;99106.75;7682732;32;37483;-83
2022/12/09 07:53:06;;;;;;;50.53;25.40;;;;;;;5.61;64.84;99107.16;7689414;32;40193;-82
2022/12/09 07:57:22;;;;;;;43.95;23.00;;;;;;;5.00;67.50;99106.47;7708767;32;40576;-81
2022/12/09 08:01:39;;;;;;;44.22;24.05;;;;;;;5.55;65.47;99101.94;7694547;32;38049;-83
2022/12/09 08:05:58;;;;;;;46.63;23.65;;;;;;;5.36;66.05;99109.59;7704529;32;38136;-82
2022/12/09 08:10:15;;;;;;;43.63;22.48;;;;;;;5.55;66.51;99110.06;7692999;32;39867;-80
2022/12/09 08:14:31;;;;;;;54.65;25.12;;;;;;;5.48;66.02;99101.34;7688367;32;40878;-84
2022/12/09 08:18:49;;;;;;;46.28;22.73;;;;;;;5.78;65.19;99092.72;7707824;32;37995;-83
2022/12/09 08:23:06;;;;;;;50.63;23.75;;;;;;;5.50;65.29;99096.50;7712267;32;37856;-85
2022/12/09 08:27:23;;;;;;;45.53;23.80;;;;;;;5.74;65.25;99094.28;7712221;32;40382;-83
2022/12/09 08:31:41;;;;;;;50.30;24.50;;;;;;;5.83;64.76;99098.16;7703070;32;40977;-84
2022/12/09 08:36:02;;;;;;;51.10;23.12;;;;;;;5.77;64.68;99094.59;7688468;32;38671;-86
2022/12/09 08:40:20;;;;;;;51.35;23.45;;;;;;;5.90;64.29;99095.22;7711858;32;36881;-85
2022/12/09 08:44:39;;;;;;;48.03;25.33;;;;;;;5.17;65.94;99096.41;7702240;32;39523;-84
2022/12/09 08:49:00;;;;;;;54.22;25.25;;;;;;;5.73;64.92;99087.25;7712007;32;40161;-86
2022/12/09 08:53:16;;;;;;;42.03;23.65;;;;;;;5.68;65.19;99085.31;7711860;32;37905;-86
2022/12/09 08:57:33;;;;;;;52.13;25.67;;;;;;;5.78;64.81;99087.31;7711739;32;38070;-85
2022/12/09 09:01:50;;;;;;;51.63;26.23;;;;;;;5.44;65.56;99090.22;7711679;32;39378;-86
2022/12/09 09:06:08;;;;;;;46.70;23.62;;;;;;;5.76;65.32;99075.91;7705327;32;39951;-85
2022/12/09 09:10:28;;;;;;;48.13;23.87;;;;;;;5.86;65.12;99069.78;7696116;32;37945;-84
2022/12/09 09:14:44;;;;;;;49.97;25.52;;;;;;;5.40;66.17;99070.19;7697706;32;37106;-84
2022/12/09 09:19:04;;;;;;;48.97;23.83;;;;;;;5.45;66.65;99067.53;7710130;32;39381;-85
2022/12/09 09:23:21;;;;;;;47.50;24.00;;;;;;;5.39;66.90;99058.53;7698187;32;40447;-84
2022/12/09 09:27:38;;;;;;;41.72;23.17;;;;;;;5.52;66.30;99048.37;7694639;32;38769;-83
2022/12/09 09:31:57;;;;;;;40.15;21.50;;;;;;;5.79;65.30;99048.34;7694841;32;36305;-85
2022/12/09 09:36:19;;;;;;;39.80;20.92;;;;;;;5.57;65.92;99040.31;7689121;32;39401;-85
2022/12/09 09:40:39;;;;;;;39.67;20.45;;;;;;;5.71;66.06;99029.88;7710548;32;40833;-85
2022/12/09 09:44:56;;;;;;;44.55;21.17;;;;;;;5.36;67.37;99023.09;7706972;32;37875;-85
2022/12/09 09:49:41;;;;;;;38.63;20.23;;;;;;;5.36;67.10;99009.59;7710977;32;38060;-84
2022/12/09 09:53:59;;;;;;;37.45;20.35;;;;;;;5.62;66.44;98988.97;7692651;32;39409;-85
2022/12/09 09:58:25;;;;;;;;;;;;;;;4.94;69.61;99007.56;7700701;32;40043;-85
2022/12/09 10:02:55;;;;;;;37.40;19.95;;;;;;;5.52;67.59;98995.16;7698027;32;38983;-85
2022/12/09 10:07:34;;;;;;;40.80;19.50;;;;;;;5.44;67.51;98995.59;7692792;32;37339;-85
2022/12/09 10:11:54;;;;;;;41.65;20.83;;;;;;;4.75;70.45;98983.59;7684531;32;40291;-84
2022/12/09 10:16:16;;;;;;;38.42;20.83;;;;;;;5.29;68.53;98973.84;7685965;32;40932;-86
2022/12/09 10:20:34;;;;;;;38.83;19.90;;;;;;;5.16;68.78;98970.50;7684122;32;38672;-85
2022/12/09 10:24:57;;;;;;;33.63;18.00;;;;;;;5.36;68.31;98975.25;7689368;32;37984;-83
2022/12/09 10:29:32;;;;;;;31.42;18.08;;;;;;;5.30;68.47;98964.69;7710001;32;39170;-83
2022/12/09 10:33:48;;;;;;;;;;;;;;;5.35;68.59;98948.50;7696976;32;40883;-83
2022/12/09 10:38:08;;;;;;;38.28;18.70;;;;;;;5.33;68.31;98923.59;7692653;32;38997;-84
2022/12/09 10:47:21;;;;;;;33.60;19.10;;;;;;;5.58;67.90;98907.56;7709780;32;39488;-83
2022/12/09 10:51:46;;;;;;;41.88;21.33;;;;;;;5.58;68.11;98902.16;7710559;32;40862;-81
2022/12/09 10:56:03;;;;;;;34.95;19.12;;;;;;;5.67;67.78;98899.78;7710528;32;38449;-82
2022/12/09 11:00:22;;;;;;;33.63;18.05;;;;;;;5.75;67.53;98884.97;7709251;32;37929;-83
2022/12/09 11:04:49;;;;;;;30.42;17.12;;;;;;;5.23;69.04;98884.62;7710485;32;39406;-82
2022/12/09 11:09:18;;;;;;;33.50;18.20;;;;;;;5.17;69.04;98865.94;7709050;32;40880;-83
2022/12/09 11:13:40;;;;;;;34.72;18.55;;;;;;;4.80;70.71;98848.63;7710188;32;38435;-82
2022/12/09 11:18:03;;;;;;;32.40;17.35;;;;;;;4.69;71.52;98836.91;7709003;32;36952;-82
2022/12/09 11:22:32;;;;;;;32.67;17.77;;;;;;;5.17;70.33;98830.81;7708986;32;39067;-82
2022/12/09 11:26:49;;;;;;;27.25;15.95;;;;;;;4.92;71.30;98823.34;7709866;32;40076;-83
2022/12/09 11:31:18;;;;;;;25.48;15.05;;;;;;;5.48;69.15;98810.19;7709855;32;37866;-84
2022/12/09 11:35:48;;;;;;;30.10;16.67;;;;;;;5.31;70.04;98820.34;7708717;32;37194;-83
2022/12/09 11:40:17;;;;;;;29.92;14.82;;;;;;;4.88;70.88;98812.22;7709660;32;38984;-83
2022/12/09 11:44:35;;;;;;;21.45;12.63;;;;;;;5.61;68.91;98804.31;7708257;32;39973;-82
2022/12/09 11:49:14;;;;;;;22.48;12.35;;;;;;;5.76;68.40;98790.03;7711382;32;37950;-83
2022/12/09 11:53:33;;;;;;;18.25;10.50;;;;;;;5.43;69.51;98792.06;7712968;32;37821;-83
2022/12/09 11:58:02;;;;;;;20.00;11.82;;;;;;;5.24;70.12;98788.16;7712947;32;39302;-83
2022/12/09 12:02:28;;;;;;;20.15;11.55;;;;;;;5.49;69.48;98784.78;7711762;32;40119;-83
2022/12/09 12:06:50;;;;;;;19.40;11.20;;;;;;;5.65;68.85;98788.38;7711136;32;37591;-83
2022/12/09 12:11:11;;;;;;;17.08;10.02;;;;;;;5.77;68.50;98769.22;7702296;32;37272;-82
2022/12/09 12:15:46;;;;;;;18.40;11.50;;;;;;;5.59;68.89;98760.50;7705651;32;40086;-80
2022/12/09 12:20:05;;;;;;;17.12;10.48;;;;;;;5.35;70.44;98762.81;7687380;32;41199;-81
2022/12/09 12:24:42;;;;;;;17.77;10.35;;;;;;;5.36;70.58;98747.41;7685552;32;37899;-80
2022/12/09 12:29:21;;;;;;;17.73;10.48;;;;;;;5.44;70.09;98738.81;7685671;32;37173;-79
2022/12/09 12:33:55;;;;;;;15.98;9.48;;;;;;;5.43;70.03;98742.56;7684796;32;39374;-80
2022/12/09 12:39:03;;;;;;;19.80;9.68;;;;;;;5.52;69.43;98741.00;7688972;32;40353;-80
2022/12/09 12:48:42;;;;;;;14.57;9.30;;;;;;;4.89;71.42;98738.22;7669282;32;37029;-81
2022/12/09 12:53:07;;;;;;;21.00;9.85;;;;;;;5.35;70.58;98729.59;7672600;32;39329;-79
2022/12/09 12:58:01;;;;;;;22.50;14.20;;;;;;;5.58;69.67;98712.87;7685280;32;40064;-80
2022/12/09 13:02:29;;;;;;;18.23;10.25;;;;;;;5.33;70.47;98710.91;7689757;32;38522;-80
2022/12/09 13:07:27;;;;;;;19.33;10.85;;;;;;;5.03;71.68;98708.88;7711993;32;37288;-80
2022/12/09 13:12:07;;;;;;;17.17;10.18;;;;;;;5.25;71.08;98704.13;7685314;32;36791;-80
2022/12/09 13:16:31;;;;;;;17.05;11.02;;;;;;;5.50;69.63;98699.88;7695503;32;40804;-80
2022/12/09 13:20:53;;;;;;;19.62;11.45;;;;;;;5.33;70.83;98704.69;7700338;32;38704;-81
2022/12/09 13:25:48;;;;;;;30.15;16.23;;;;;;;5.48;70.30;98702.03;7685080;32;36252;-80
2022/12/09 13:30:16;;;;;;;19.35;11.98;;;;;;;4.92;72.20;98694.50;7685132;32;40173;-80
2022/12/09 13:34:39;;;;;;;20.88;12.25;;;;;;;5.14;71.87;98693.50;7684139;32;39929;-80
2022/12/09 13:38:55;;;;;;;17.92;10.82;;;;;;;5.35;71.12;98680.94;7684911;32;37852;-80
2022/12/09 13:43:21;;;;;;;15.50;10.35;;;;;;;5.67;69.46;98666.41;7685189;32;37411;-81
2022/12/09 13:47:37;;;;;;;15.32;10.40;;;;;;;5.34;70.44;98673.88;7699332;32;39395;-80
2022/12/09 13:51:54;;;;;;;18.12;10.45;;;;;;;5.50;70.49;98675.56;7711372;32;40845;-82
2022/12/09 13:56:19;;;;;;;18.65;10.23;;;;;;;5.46;70.84;98666.34;7704209;32;236212;-82
2022/12/09 14:00:36;;;;;;;18.73;10.35;;;;;;;5.44;70.45;98663.91;7711558;32;37167;-82
2022/12/09 14:04:57;;;;;;;20.45;10.13;;;;;;;4.98;72.72;98671.03;7710701;32;37257;-82
2022/12/09 14:09:37;;;;;;;18.77;10.02;;;;;;;5.67;70.25;98650.19;7709462;32;39895;-80
2022/12/09 14:14:13;;;;;;;17.65;9.82;;;;;;;5.63;69.99;98644.50;7711102;32;38011;-81
2022/12/09 14:18:32;;;;;;;16.62;9.75;;;;;;;5.74;69.67;98651.53;7709701;32;37901;-80
2022/12/09 14:23:11;;;;;;;17.80;9.73;;;;;;;5.68;70.05;98641.81;7708504;32;39373;-81
2022/12/09 14:27:29;;;;;;;16.27;9.25;;;;;;;5.88;69.31;98634.81;7692745;32;40059;-80
2022/12/09 14:31:48;;;;;;;16.40;10.15;;;;;;;5.82;69.31;98623.16;7708903;32;38647;-81
2022/12/09 14:36:05;;;;;;;17.83;9.57;;;;;;;5.77;69.80;98623.16;7707745;32;37099;-80
2022/12/09 14:40:49;;;;;;;16.77;9.63;;;;;;;5.90;69.12;98614.53;7709498;32;39439;-81
2022/12/09 14:45:16;;;;;;;16.42;9.35;;;;;;;5.77;69.75;98609.66;7709761;32;41599;-81
2022/12/09 14:49:35;;;;;;;12.57;8.20;;;;;;;5.60;71.77;98599.88;7710266;32;38285;-81
2022/12/09 14:54:19;;;;;;;15.38;9.02;;;;;;;5.42;71.06;98611.22;7709588;32;38018;-78
2022/12/09 14:58:35;;;;;;;17.83;9.60;;;;;;;5.72;70.21;98593.41;7704527;32;40134;-80
2022/12/09 15:02:53;;;;;;;15.32;9.07;;;;;;;5.52;70.61;98573.38;7699409;32;40895;-80
2022/12/09 15:07:32;;;;;;;17.40;10.38;;;;;;;5.36;71.83;98563.62;7682824;32;38190;-80
2022/12/09 15:11:49;;;;;;;15.27;8.65;;;;;;;5.08;72.14;98573.81;7706325;32;37135;-80
2022/12/09 15:16:16;;;;;;;15.13;8.90;;;;;;;5.60;71.18;98559.31;7708394;32;40112;-80
2022/12/09 15:20:40;;;;;;;17.02;10.57;;;;;;;5.52;71.29;98561.75;7709739;32;40050;-78
2022/12/09 15:24:56;;;;;;;17.73;9.68;;;;;;;5.49;71.62;98555.00;7694790;32;37890;-81
2022/12/09 15:29:20;;;;;;;24.35;10.80;;;;;;;5.67;71.04;98560.97;7701285;32;36762;-81
2022/12/09 15:33:43;;;;;;;18.92;10.45;;;;;;;5.33;71.76;98545.22;7695564;32;39549;-81
2022/12/09 15:38:04;;;;;;;19.37;10.55;;;;;;;4.99;73.17;98532.19;7694504;32;40230;-80
2022/12/09 15:42:26;;;;;;;19.15;9.18;;;;;;;5.26;72.27;98532.81;7692098;32;38483;-80
2022/12/09 15:46:45;;;;;;;16.60;9.88;;;;;;;5.70;71.00;98539.59;7703312;32;37177;-80
2022/12/09 15:51:06;;;;;;;19.33;11.23;;;;;;;5.98;69.80;98507.69;7711124;32;39345;-81
2022/12/09 15:55:49;;;;;;;18.87;10.38;;;;;;;5.89;70.13;98512.81;7712463;32;40606;-81
2022/12/09 16:00:08;;;;;;;22.02;11.32;;;;;;;5.45;71.15;98508.78;7711292;32;37927;-81
2022/12/09 16:04:36;;;;;;;20.98;11.50;;;;;;;5.96;70.16;98499.03;7711186;32;38100;-81
2022/12/09 16:08:55;;;;;;;20.58;10.07;;;;;;;5.89;70.22;98499.28;7710925;32;39905;-78
2022/12/09 16:13:14;;;;;;;20.12;10.65;;;;;;;5.64;70.74;98484.72;7712461;32;40091;-81
2022/12/09 16:17:35;;;;;;;15.27;8.93;;;;;;;5.67;71.10;98483.34;7711786;32;37710;-81
2022/12/09 16:21:56;;;;;;;16.17;9.75;;;;;;;5.96;70.00;98474.69;7712057;32;38085;-81
2022/12/09 16:26:37;;;;;;;19.20;9.75;;;;;;;5.38;71.28;98497.41;7707084;32;39107;-81
2022/12/09 16:31:02;;;;;;;22.67;10.73;;;;;;;6.01;69.47;98478.19;7706185;32;39910;-82
2022/12/09 16:35:32;;;;;;;18.92;10.48;;;;;;;5.72;70.30;98469.03;7709489;32;37412;-80
2022/12/09 16:39:52;;;;;;;19.30;10.55;;;;;;;5.64;71.15;98460.38;7693543;32;37031;-80
2022/12/09 16:44:17;;;;;;;21.12;10.70;;;;;;;5.79;70.64;98458.72;7695247;32;39163;-81
2022/12/09 16:48:33;;;;;;;21.20;11.13;;;;;;;5.55;71.51;98458.47;7704837;32;40793;-80
2022/12/09 16:52:49;;;;;;;19.17;11.00;;;;;;;5.83;70.45;98449.00;7711674;32;38635;-80
2022/12/09 16:57:05;;;;;;;17.42;10.15;;;;;;;5.82;70.13;98447.38;7709520;32;37873;-82
2022/12/09 17:01:25;;;;;;;22.73;10.50;;;;;;;5.87;70.06;98447.38;7702743;32;39282;-81
2022/12/09 17:05:43;;;;;;;18.17;10.70;;;;;;;5.83;70.73;98438.19;7684934;32;40944;-81
2022/12/09 17:10:03;;;;;;;18.25;10.38;;;;;;;6.03;69.64;98414.91;7684219;32;37605;-80
2022/12/09 17:14:19;;;;;;;16.85;9.27;;;;;;;6.09;69.54;98420.00;7682923;32;37181;-80
2022/12/09 17:18:36;;;;;;;19.67;9.18;;;;;;;6.27;68.85;98412.38;7684753;32;39382;-82
2022/12/09 17:22:54;;;;;;;17.50;8.35;;;;;;;6.35;68.56;98411.81;7684416;32;40114;-81
2022/12/09 17:27:10;;;;;;;13.88;7.85;;;;;;;6.21;69.21;98400.75;7676899;32;38784;-82
2022/12/09 17:31:26;;;;;;;15.25;8.82;;;;;;;5.88;70.46;98375.97;7681774;32;37830;-81
2022/12/09 17:35:43;;;;;;;14.80;8.70;;;;;;;5.98;69.76;98372.44;7683559;32;39186;-81
2022/12/09 17:40:01;;;;;;;14.90;8.68;;;;;;;5.88;69.83;98381.38;7683876;32;39221;-81
2022/12/09 17:44:22;;;;;;;16.02;8.68;;;;;;;6.19;69.24;98398.34;7700398;32;38345;-80
2022/12/09 17:48:39;;;;;;;15.23;9.00;;;;;;;6.07;69.18;98394.31;7701050;32;37175;-81
2022/12/09 17:52:55;;;;;;;13.98;8.45;;;;;;;6.26;68.50;98376.38;7710806;32;39445;-81
2022/12/09 17:57:16;;;;;;;14.55;7.00;;;;;;;6.22;68.14;98352.84;7711473;32;40038;-81
2022/12/09 18:01:35;;;;;;;11.63;6.60;;;;;;;6.07;68.61;98357.25;7710265;32;37483;-80
2022/12/09 18:05:55;;;;;;;11.30;6.68;;;;;;;5.94;69.07;98349.69;7711002;32;38260;-80
2022/12/09 18:10:11;;;;;;;10.05;6.20;;;;;;;5.69;70.57;98328.94;7711169;32;40046;-81
2022/12/09 18:14:29;;;;;;;8.13;5.28;;;;;;;5.97;69.21;98322.94;7710023;32;39883;-81
2022/12/09 18:18:48;;;;;;;10.02;5.55;;;;;;;6.18;68.45;98342.56;7710606;32;37746;-81
2022/12/09 18:23:04;;;;;;;8.70;5.45;;;;;;;5.98;69.27;98327.25;7710254;32;36846;-81
2022/12/09 18:27:21;;;;;;;7.87;4.75;;;;;;;5.90;69.35;98287.22;7703472;32;40096;-81
2022/12/09 18:31:38;;;;;;;8.63;5.55;;;;;;;5.88;69.42;98256.13;7707322;32;39917;-81
2022/12/09 18:35:54;;;;;;;8.60;5.78;;;;;;;5.91;69.27;98264.50;7688144;32;37563;-81
2022/12/09 18:40:11;;;;;;;9.18;5.60;;;;;;;5.84;69.58;98270.19;7704656;32;36786;-80
2022/12/09 18:44:27;;;;;;;7.80;5.28;;;;;;;5.36;70.76;98271.75;7696591;32;39293;-79
2022/12/09 18:48:44;;;;;;;8.57;5.60;;;;;;;5.84;69.94;98294.53;7684101;32;39802;-77
2022/12/09 18:53:00;;;;;;;8.93;5.55;;;;;;;5.55;71.08;98269.25;7683074;32;38601;-82
2022/12/09 18:57:16;;;;;;;7.30;5.03;;;;;;;5.94;70.02;98272.06;7683108;32;37820;-81
2022/12/09 19:01:37;;;;;;;8.15;5.35;;;;;;;6.16;68.59;98284.44;7692880;32;39133;-81
2022/12/09 19:05:54;;;;;;;7.53;4.75;;;;;;;6.19;68.53;98263.03;7709237;32;39590;-81
2022/12/09 19:10:11;;;;;;;7.18;5.07;;;;;;;6.23;68.51;98274.09;7709837;32;38475;-81
2022/12/09 19:14:27;;;;;;;7.87;4.78;;;;;;;5.57;70.53;98332.78;7709218;32;36842;-81
2022/12/09 19:18:44;;;;;;;6.50;4.47;;;;;;;6.06;69.60;98300.72;7709836;32;39301;-80
2022/12/09 19:23:02;;;;;;;6.28;4.30;;;;;;;6.16;69.17;98285.22;7707818;32;39909;-80
2022/12/09 19:27:18;;;;;;;6.25;4.03;;;;;;;6.14;69.29;98281.16;7705825;32;38015;-80
2022/12/09 19:31:39;;;;;;;6.05;4.05;;;;;;;6.22;69.14;98264.34;7709162;32;38043;-80
2022/12/09 19:35:55;;;;;;;9.27;5.25;;;;;;;6.21;69.13;98232.97;7690930;32;39510;-81
2022/12/09 19:40:11;;;;;;;6.00;3.80;;;;;;;6.21;69.11;98243.81;7682544;32;40907;-80
2022/12/09 19:44:27;;;;;;;5.93;3.47;;;;;;;6.20;69.15;98228.66;7681762;32;37757;-82
2022/12/09 19:49:04;;;;;;;5.60;3.92;;;;;;;6.16;69.82;98230.31;7703268;32;38423;-79
2022/12/09 19:53:21;;;;;;;6.53;4.12;;;;;;;6.19;70.01;98213.47;7708328;32;39498;-80
2022/12/09 19:57:38;;;;;;;7.05;3.80;;;;;;;6.28;69.28;98171.22;7708163;32;40886;-81
2022/12/09 20:01:54;;;;;;;5.35;3.92;;;;;;;6.16;69.78;98159.97;7707786;32;38651;-80
2022/12/09 20:06:13;;;;;;;3.78;3.20;;;;;;;5.91;70.80;98179.84;7705986;32;38291;-80
2022/12/09 20:10:30;;;;;;;3.95;3.37;;;;;;;5.79;71.53;98174.78;7711142;32;40725;-79
2022/12/09 20:14:48;;;;;;;4.45;3.42;;;;;;;6.09;70.88;98152.16;7710968;32;40029;-80
2022/12/09 20:19:05;;;;;;;5.07;3.90;;;;;;;6.08;71.00;98158.66;7711177;32;38617;-81
2022/12/09 20:23:22;;;;;;;5.95;3.35;;;;;;;6.24;70.38;98153.91;7709388;32;37105;-79
2022/12/09 20:27:39;;;;;;;4.62;3.55;;;;;;;6.18;70.86;98150.44;7701997;32;40087;-80
2022/12/09 20:31:59;;;;;;;4.78;3.53;;;;;;;6.21;70.68;98135.56;7709186;32;39881;-80